Time;durP1;ratioP1;P1;durP2;ratioP2;P2;SDS_P1;SDS_P2;PMS_P1;PMS_P2;Temp;Humidity;BMP_temperature;BMP_pressure;BME280_temperature;BME280_humidity;BME280_pressure;Samples;Min_cycle;Max_cycle;Signal;HPM_P1;HPM_P2
2022/07/13 00:00:09;;;;;;;;;;;11.20;99.90;;;;;;5127544;27;20178;-55
2022/07/13 00:02:49;;;;;;;;;;;11.10;99.90;;;;;;5127117;27;19912;-55
2022/07/13 00:05:29;;;;;;;;;;;11.10;99.90;;;;;;5106454;27;19926;-55
2022/07/13 00:08:09;;;;;;;;;;;11.00;99.90;;;;;;5127059;27;19911;-54
2022/07/13 00:10:49;;;;;;;;;;;11.00;99.90;;;;;;5161773;27;19911;-55
2022/07/13 00:13:28;;;;;;;;;;;10.90;99.90;;;;;;5106628;27;19912;-54
2022/07/13 00:16:08;;;;;;;;;;;10.80;99.90;;;;;;5126679;27;19918;-55
2022/07/13 00:18:48;;;;;;;;;;;10.90;99.90;;;;;;5106546;27;20312;-55
2022/07/13 00:21:28;;;;;;;;;;;11.00;99.90;;;;;;5122855;27;19912;-54
2022/07/13 00:24:08;;;;;;;;;;;11.00;99.90;;;;;;5107075;27;19927;-54
2022/07/13 00:26:48;;;;;;;;;;;11.00;99.90;;;;;;5126851;27;19915;-55
2022/07/13 00:29:27;;;;;;;;;;;11.00;99.90;;;;;;5126717;27;19918;-55
2022/07/13 00:32:07;;;;;;;;;;;10.80;99.90;;;;;;5106740;27;19912;-54
2022/07/13 00:34:47;;;;;;;;;;;10.70;99.90;;;;;;5126968;27;20443;-55
2022/07/13 00:37:27;;;;;;;;;;;10.60;99.90;;;;;;5126708;27;20362;-54
2022/07/13 00:40:08;;;;;;;;;;;10.60;99.90;;;;;;5106960;27;20169;-55
2022/07/13 00:42:48;;;;;;;;;;;10.60;99.90;;;;;;5126936;27;20372;-55
2022/07/13 00:45:28;;;;;;;;;;;10.60;99.90;;;;;;5127344;27;19912;-54
2022/07/13 00:48:08;;;;;;;;;;;10.60;99.90;;;;;;5127681;27;19920;-54
2022/07/13 00:50:48;;;;;;;;;;;10.50;99.90;;;;;;5127320;27;19915;-54
2022/07/13 00:53:28;;;;;;;;;;;10.40;99.90;;;;;;5125730;27;19911;-54
2022/07/13 00:56:09;;;;;;;;;;;10.30;99.90;;;;;;5106565;27;19912;-55
2022/07/13 00:58:50;;;;;;;;;;;10.30;99.90;;;;;;5106980;27;20407;-55
2022/07/13 01:01:30;;;;;;;;;;;10.20;99.90;;;;;;5106505;27;20142;-55
2022/07/13 01:04:10;;;;;;;;;;;10.10;99.90;;;;;;5127524;27;19918;-55
2022/07/13 01:06:50;;;;;;;;;;;10.00;99.90;;;;;;5126996;27;19912;-55
2022/07/13 01:09:31;;;;;;;;;;;9.90;99.90;;;;;;5127242;27;19911;-55
2022/07/13 01:12:11;;;;;;;;;;;9.90;99.90;;;;;;5127274;27;19911;-55
2022/07/13 01:14:51;;;;;;;;;;;9.90;99.90;;;;;;5127311;27;19916;-56
2022/07/13 01:17:32;;;;;;;;;;;10.00;99.90;;;;;;5106306;27;19920;-54
2022/07/13 01:20:12;;;;;;;;;;;9.90;99.90;;;;;;5127238;27;19912;-55
2022/07/13 01:22:53;;;;;;;;;;;10.00;99.90;;;;;;5123248;27;19913;-55
2022/07/13 01:25:34;;;;;;;;;;;9.90;99.90;;;;;;5127021;27;20277;-55
2022/07/13 01:28:14;;;;;;;;;;;9.90;99.90;;;;;;5126924;27;19912;-54
2022/07/13 01:30:55;;;;;;;;;;;9.90;99.90;;;;;;5127145;27;20254;-54
2022/07/13 01:33:37;;;;;;;;;;;9.80;99.90;;;;;;5126929;27;19911;-55
2022/07/13 01:36:18;;;;;;;;;;;9.80;99.90;;;;;;5106378;27;19920;-55
2022/07/13 01:38:58;;;;;;;;;;;9.80;99.90;;;;;;5121447;27;20617;-54
2022/07/13 01:41:39;;;;;;;;;;;9.80;99.90;;;;;;5124509;27;19916;-55
2022/07/13 01:44:19;;;;;;;;;;;9.70;99.90;;;;;;5126737;27;19912;-55
2022/07/13 01:47:07;;;;;;;;;;;9.70;99.90;;;;;;5126674;27;19916;-55
2022/07/13 01:49:46;;;;;;;;;;;9.70;99.90;;;;;;5127109;27;20291;-54
2022/07/13 01:52:26;;;;;;;;;;;9.70;99.90;;;;;;5127202;27;19912;-55
2022/07/13 01:55:07;;;;;;;;;;;9.70;99.90;;;;;;5126758;27;19912;-55
2022/07/13 01:57:47;;;;;;;;;;;9.70;99.90;;;;;;5126265;27;19912;-55
2022/07/13 02:00:29;;;;;;;;;;;9.70;99.90;;;;;;5126996;27;20392;-54
2022/07/13 02:03:09;;;;;;;;;;;9.60;99.90;;;;;;5127430;27;19912;-55
2022/07/13 02:05:49;;;;;;;;;;;9.60;99.90;;;;;;5126783;27;19912;-54
2022/07/13 02:08:29;;;;;;;;;;;9.50;99.90;;;;;;5126970;27;20401;-54
2022/07/13 02:11:16;;;;;;;;;;;9.50;99.90;;;;;;5125328;27;20277;-55
2022/07/13 02:13:56;;;;;;;;;;;9.50;99.90;;;;;;5126921;27;19912;-55
2022/07/13 02:16:36;;;;;;;;;;;9.60;99.90;;;;;;5106017;27;19942;-55
2022/07/13 02:19:16;;;;;;;;;;;9.60;99.90;;;;;;5126835;27;19911;-54
2022/07/13 02:21:55;;;;;;;;;;;9.50;99.90;;;;;;5126974;27;19912;-54
2022/07/13 02:24:35;;;;;;;;;;;9.50;99.90;;;;;;5106256;27;19926;-54
2022/07/13 02:27:15;;;;;;;;;;;9.50;99.90;;;;;;5127066;27;19918;-54
2022/07/13 02:29:57;;;;;;;;;;;9.50;99.90;;;;;;5126942;27;19912;-54
2022/07/13 02:32:36;;;;;;;;;;;9.60;99.90;;;;;;5106269;27;19926;-54
2022/07/13 02:35:18;;;;;;;;;;;9.70;99.90;;;;;;5106376;27;19946;-55
2022/07/13 02:37:58;;;;;;;;;;;9.70;99.90;;;;;;5127477;27;19918;-54
2022/07/13 02:40:39;;;;;;;;;;;9.80;99.90;;;;;;5106206;27;19912;-55
2022/07/13 02:43:19;;;;;;;;;;;9.90;99.90;;;;;;5126697;27;19912;-55
2022/07/13 02:45:59;;;;;;;;;;;10.00;99.90;;;;;;5118700;27;20126;-55
2022/07/13 02:48:39;;;;;;;;;;;10.10;99.90;;;;;;5140486;27;19912;-55
2022/07/13 02:51:18;;;;;;;;;;;10.30;99.90;;;;;;5123668;27;19934;-55
2022/07/13 02:53:58;;;;;;;;;;;10.40;99.90;;;;;;5112947;22;19924;-56
2022/07/13 02:56:38;;;;;;;;;;;10.50;99.90;;;;;;5144971;27;19915;-56
2022/07/13 02:59:18;;;;;;;;;;;10.60;99.90;;;;;;5123776;27;19912;-56
2022/07/13 03:01:59;;;;;;;;;;;10.60;99.90;;;;;;5105050;27;20371;-55
2022/07/13 03:04:40;;;;;;;;;;;10.70;99.90;;;;;;5104983;27;19926;-56
2022/07/13 03:07:20;;;;;;;;;;;10.80;99.90;;;;;;5124400;27;19920;-55
2022/07/13 03:10:00;;;;;;;;;;;10.80;99.90;;;;;;5130204;27;20265;-55
2022/07/13 03:12:42;;;;;;;;;;;10.80;99.90;;;;;;5105073;27;19912;-56
2022/07/13 03:15:22;;;;;;;;;;;10.80;99.90;;;;;;5124971;27;19912;-55
2022/07/13 03:18:03;;;;;;;;;;;10.80;99.90;;;;;;5124406;27;19911;-55
2022/07/13 03:20:43;;;;;;;;;;;10.90;99.90;;;;;;5125762;27;19911;-55
2022/07/13 03:23:24;;;;;;;;;;;10.90;99.90;;;;;;5114231;27;20288;-55
2022/07/13 03:26:04;;;;;;;;;;;11.00;99.90;;;;;;5124396;27;19916;-55
2022/07/13 03:28:45;;;;;;;;;;;11.10;99.90;;;;;;5145632;27;19964;-56
2022/07/13 03:31:26;;;;;;;;;;;11.10;99.90;;;;;;5124518;27;20323;-56
2022/07/13 03:34:07;;;;;;;;;;;11.20;99.90;;;;;;5104951;27;19931;-56
2022/07/13 03:36:48;;;;;;;;;;;11.20;99.90;;;;;;5124692;27;20278;-56
2022/07/13 03:39:28;;;;;;;;;;;11.30;99.90;;;;;;5122774;27;19911;-56
2022/07/13 03:42:11;;;;;;;;;;;11.30;99.90;;;;;;5104400;27;19912;-56
2022/07/13 03:44:51;;;;;;;;;;;11.30;99.90;;;;;;5125453;27;19912;-55
2022/07/13 03:47:32;;;;;;;;;;;11.40;99.90;;;;;;5124373;27;19916;-56
2022/07/13 03:50:12;;;;;;;;;;;11.50;99.90;;;;;;5125452;27;19916;-56
2022/07/13 03:52:54;;;;;;;;;;;11.60;99.90;;;;;;5124657;27;19916;-55
2022/07/13 03:55:36;;;;;;;;;;;11.70;99.90;;;;;;5125368;27;20393;-56
2022/07/13 03:58:17;;;;;;;;;;;11.80;99.90;;;;;;5123866;27;19918;-55
2022/07/13 04:00:58;;;;;;;;;;;12.00;99.90;;;;;;5105048;27;19926;-56
2022/07/13 04:03:38;;;;;;;;;;;12.10;99.90;;;;;;5112494;27;19923;-55
2022/07/13 04:06:19;;;;;;;;;;;12.20;99.90;;;;;;5124787;27;20254;-56
2022/07/13 04:09:01;;;;;;;;;;;12.30;99.90;;;;;;5125114;27;19920;-55
2022/07/13 04:11:42;;;;;;;;;;;12.40;99.90;;;;;;5125217;27;20380;-55
2022/07/13 04:14:22;;;;;;;;;;;12.40;99.90;;;;;;5083822;28;19930;-55
2022/07/13 04:17:02;;;;;;;;;;;12.60;99.90;;;;;;5124008;27;19920;-56
2022/07/13 04:19:41;;;;;;;;;;;12.80;99.90;;;;;;5125020;27;19922;-55
2022/07/13 04:22:21;;;;;;;;;;;13.00;99.90;;;;;;5125216;27;19918;-55
2022/07/13 04:25:01;;;;;;;;;;;13.20;99.90;;;;;;5125067;27;20377;-55
2022/07/13 04:27:41;;;;;;;;;;;13.30;99.90;;;;;;5124364;27;19970;-55
2022/07/13 04:30:21;;;;;;;;;;;13.70;99.90;;;;;;5124564;27;19911;-55
2022/07/13 04:33:02;;;;;;;;;;;13.90;99.90;;;;;;5125335;27;19954;-55
2022/07/13 04:35:42;;;;;;;;;;;14.10;99.90;;;;;;5125343;27;20377;-55
2022/07/13 04:38:22;;;;;;;;;;;14.10;99.90;;;;;;5125175;27;19918;-56
2022/07/13 04:41:03;;;;;;;;;;;14.20;99.90;;;;;;5104419;27;20374;-56
2022/07/13 04:43:45;;;;;;;;;;;14.20;99.90;;;;;;5125361;27;19911;-55
2022/07/13 04:46:28;;;;;;;;;;;14.20;99.90;;;;;;5124467;27;19912;-55
2022/07/13 04:49:09;;;;;;;;;;;14.20;99.90;;;;;;5104134;27;20316;-55
2022/07/13 04:51:50;;;;;;;;;;;14.30;99.90;;;;;;5084585;28;19921;-55
2022/07/13 04:54:31;;;;;;;;;;;14.50;99.90;;;;;;5166210;27;19911;-55
2022/07/13 04:57:12;;;;;;;;;;;14.60;99.90;;;;;;5123610;27;20421;-56
2022/07/13 04:59:52;;;;;;;;;;;14.80;99.90;;;;;;5101856;27;19926;-55
2022/07/13 05:02:32;;;;;;;;;;;15.00;99.90;;;;;;5124459;27;19930;-55
2022/07/13 05:05:11;;;;;;;;;;;15.30;99.90;;;;;;5098765;27;19962;-55
2022/07/13 05:07:51;;;;;;;;;;;15.60;99.90;;;;;;5123663;27;19915;-55
2022/07/13 05:10:31;;;;;;;;;;;15.60;99.90;;;;;;5105057;27;19912;-55
2022/07/13 05:13:11;;;;;;;;;;;15.70;99.90;;;;;;5116451;27;19918;-56
2022/07/13 05:15:52;;;;;;;;;;;16.00;99.90;;;;;;5104304;27;19912;-55
2022/07/13 05:18:36;;;;;;;;;;;16.50;99.90;;;;;;5125363;27;19915;-56
2022/07/13 05:21:20;;;;;;;;;;;16.70;99.90;;;;;;5124693;27;20417;-55
2022/07/13 05:24:00;;;;;;;;;;;16.90;99.90;;;;;;5102936;27;19912;-55
2022/07/13 05:26:40;;;;;;;;;;;17.20;99.90;;;;;;5103490;27;19926;-55
2022/07/13 05:29:19;;;;;;;;;;;17.50;99.90;;;;;;5102751;27;19985;-55
2022/07/13 05:31:59;;;;;;;;;;;17.70;99.90;;;;;;5125486;27;19916;-55
2022/07/13 05:34:39;;;;;;;;;;;18.00;99.90;;;;;;5124583;27;19911;-56
2022/07/13 05:37:19;;;;;;;;;;;18.40;99.90;;;;;;5123336;27;20529;-55
2022/07/13 05:39:59;;;;;;;;;;;18.50;99.90;;;;;;5103313;27;19930;-55
2022/07/13 05:42:40;;;;;;;;;;;18.70;99.90;;;;;;5124385;27;19952;-55
2022/07/13 05:45:20;;;;;;;;;;;18.70;99.90;;;;;;5123271;27;20373;-55
2022/07/13 05:48:00;;;;;;;;;;;18.50;99.90;;;;;;5123468;27;19912;-55
2022/07/13 05:50:40;;;;;;;;;;;18.50;99.90;;;;;;5125353;27;19916;-55
2022/07/13 05:53:20;;;;;;;;;;;18.40;99.90;;;;;;5115060;27;19920;-55
2022/07/13 05:56:01;;;;;;;;;;;18.20;99.90;;;;;;5124089;27;19911;-55
2022/07/13 05:58:41;;;;;;;;;;;18.20;99.90;;;;;;5124919;27;19911;-55
2022/07/13 06:01:20;;;;;;;;;;;18.50;99.90;;;;;;5125286;27;19912;-55
2022/07/13 06:04:00;;;;;;;;;;;18.90;99.90;;;;;;5125120;27;20157;-55
2022/07/13 06:06:40;;;;;;;;;;;19.30;99.90;;;;;;5103964;27;20315;-56
2022/07/13 06:09:20;;;;;;;;;;;19.60;99.90;;;;;;5124788;27;19916;-55
2022/07/13 06:12:00;;;;;;;;;;;20.10;99.90;;;;;;5084121;28;19912;-55
2022/07/13 06:14:41;;;;;;;;;;;20.60;99.90;;;;;;5125166;27;19919;-55
2022/07/13 06:17:21;;;;;;;;;;;21.30;99.90;;;;;;5103021;27;20323;-55
2022/07/13 06:20:01;;;;;;;;;;;21.90;99.90;;;;;;5125140;27;19915;-55
2022/07/13 06:22:41;;;;;;;;;;;22.40;99.90;;;;;;5100260;27;19916;-55
2022/07/13 06:25:21;;;;;;;;;;;22.80;99.90;;;;;;5104592;27;19912;-55
2022/07/13 06:28:00;;;;;;;;;;;23.10;96.80;;;;;;5122322;27;20202;-55
2022/07/13 06:30:40;;;;;;;;;;;23.40;93.10;;;;;;5125497;27;20324;-55
2022/07/13 06:33:20;;;;;;;;;;;23.30;95.40;;;;;;5115225;27;19912;-55
2022/07/13 06:36:00;;;;;;;;;;;23.20;94.80;;;;;;5124425;27;19911;-55
2022/07/13 06:38:40;;;;;;;;;;;22.80;91.60;;;;;;5125264;27;19912;-55
2022/07/13 06:41:20;;;;;;;;;;;22.30;99.00;;;;;;5125952;27;19926;-55
2022/07/13 06:44:01;;;;;;;;;;;22.50;99.90;;;;;;5125810;27;19911;-55
2022/07/13 06:46:41;;;;;;;;;;;23.00;92.30;;;;;;5124856;27;19916;-56
2022/07/13 06:49:21;;;;;;;;;;;23.50;87.80;;;;;;5124769;27;19915;-55
2022/07/13 06:52:00;;;;;;;;;;;23.80;76.30;;;;;;5105403;27;19912;-55
2022/07/13 06:54:41;;;;;;;;;;;24.00;74.70;;;;;;5125943;27;20032;-55
2022/07/13 06:57:22;;;;;;;;;;;24.40;70.70;;;;;;5118543;27;19925;-55
2022/07/13 07:00:02;;;;;;;;;;;24.50;69.90;;;;;;5125817;27;19911;-56
2022/07/13 07:02:41;;;;;;;;;;;24.30;66.50;;;;;;5121086;27;19912;-56
2022/07/13 07:05:21;;;;;;;;;;;24.40;65.50;;;;;;5125283;27;20369;-56
2022/07/13 07:08:02;;;;;;;;;;;24.50;68.30;;;;;;5125077;27;19912;-55
2022/07/13 07:10:43;;;;;;;;;;;24.60;66.50;;;;;;5125988;27;19915;-55
2022/07/13 07:13:22;;;;;;;;;;;24.50;67.90;;;;;;5124814;27;20369;-56
2022/07/13 07:16:02;;;;;;;;;;;24.50;67.70;;;;;;5125166;27;20377;-55
2022/07/13 07:18:42;;;;;;;;;;;24.60;71.30;;;;;;5125568;27;20394;-55
2022/07/13 07:21:22;;;;;;;;;;;24.60;66.60;;;;;;5125878;27;19911;-56
2022/07/13 07:24:02;;;;;;;;;;;24.70;67.80;;;;;;5087555;27;19917;-56
2022/07/13 07:26:41;;;;;;;;;;;24.90;69.20;;;;;;5123594;27;20266;-56
2022/07/13 07:29:22;;;;;;;;;;;25.10;66.30;;;;;;5119570;27;19989;-56
2022/07/13 07:32:03;;;;;;;;;;;25.40;65.30;;;;;;5125528;27;19922;-56
2022/07/13 07:34:42;;;;;;;;;;;25.50;62.30;;;;;;5104776;27;20442;-56
2022/07/13 07:37:22;;;;;;;;;;;25.40;64.20;;;;;;5104088;27;19926;-56
2022/07/13 07:40:02;;;;;;;;;;;25.60;63.90;;;;;;5125847;27;19918;-55
2022/07/13 07:42:42;;;;;;;;;;;25.60;58.60;;;;;;5124895;27;19918;-56
2022/07/13 07:45:22;;;;;;;;;;;25.80;59.10;;;;;;5125643;27;20188;-56
2022/07/13 07:48:02;;;;;;;;;;;26.20;56.20;;;;;;5124770;27;19945;-56
2022/07/13 07:50:41;;;;;;;;;;;26.20;53.80;;;;;;5125452;27;20303;-56
2022/07/13 07:53:21;;;;;;;;;;;26.10;56.40;;;;;;5115504;27;20089;-56
2022/07/13 07:56:01;;;;;;;;;;;26.20;55.80;;;;;;5124984;27;19918;-56
2022/07/13 07:58:41;;;;;;;;;;;26.90;55.50;;;;;;5124736;27;19912;-56
2022/07/13 08:01:21;;;;;;;;;;;27.60;52.50;;;;;;5125861;27;20288;-57
2022/07/13 08:04:01;;;;;;;;;;;27.90;50.20;;;;;;5105389;27;19912;-55
2022/07/13 08:06:40;;;;;;;;;;;27.90;50.20;;;;;;5124998;27;19912;-56
2022/07/13 08:09:20;;;;;;;;;;;27.90;49.60;;;;;;5104756;27;19926;-56
2022/07/13 08:12:02;;;;;;;;;;;27.90;50.50;;;;;;5105720;27;19946;-56
2022/07/13 08:14:43;;;;;;;;;;;28.10;51.10;;;;;;5166156;27;20132;-56
2022/07/13 08:17:23;;;;;;;;;;;28.40;49.70;;;;;;5125156;27;19912;-55
2022/07/13 08:20:03;;;;;;;;;;;28.70;48.20;;;;;;5099567;27;20384;-56
2022/07/13 08:22:43;;;;;;;;;;;29.00;47.40;;;;;;5120317;27;19912;-56
2022/07/13 08:25:23;;;;;;;;;;;29.30;45.40;;;;;;5105153;27;19912;-55
2022/07/13 08:28:05;;;;;;;;;;;29.40;46.00;;;;;;5123619;27;20367;-53
2022/07/13 08:30:45;;;;;;;;;;;29.40;45.70;;;;;;5125420;27;19912;-56
2022/07/13 08:38:34;;;;;;;;;;;29.70;47.70;;;;;;5125680;27;19911;-56
2022/07/13 08:39:34;;;;;;;;;;;30.30;43.60;;;;;;5122657;27;19926;-56
2022/07/13 08:42:14;;;;;;;;;;;30.40;41.20;;;;;;5124909;27;19924;-56
2022/07/13 08:44:54;;;;;;;;;;;30.00;41.90;;;;;;5125147;27;19918;-55
2022/07/13 08:47:35;;;;;;;;;;;29.80;43.50;;;;;;5103016;27;20446;-56
2022/07/13 08:50:17;;;;;;;;;;;30.10;42.80;;;;;;5084876;28;19912;-56
2022/07/13 08:52:57;;;;;;;;;;;30.40;41.10;;;;;;5105658;27;20518;-56
2022/07/13 08:55:39;;;;;;;;;;;30.60;40.90;;;;;;5145895;27;19915;-56
2022/07/13 08:58:20;;;;;;;;;;;30.70;39.60;;;;;;5164502;27;20372;-56
2022/07/13 09:00:59;;;;;;;;;;;30.50;39.40;;;;;;5105161;27;19916;-56
2022/07/13 09:03:39;;;;;;;;;;;30.50;42.30;;;;;;5105100;27;19916;-56
2022/07/13 09:06:36;;;;;;;;;;;30.60;40.20;;;;;;5124528;27;19926;-56
2022/07/13 09:09:27;;;;;;;;;;;30.90;39.50;;;;;;5104996;27;19926;-56
2022/07/13 09:12:12;;;;;;;;;;;31.20;39.10;;;;;;5125558;27;19919;-56
2022/07/13 09:14:53;;;;;;;;;;;31.20;38.10;;;;;;5105471;27;19912;-56
2022/07/13 09:17:38;;;;;;;;;;;31.10;39.20;;;;;;5125122;27;19933;-57
2022/07/13 09:20:20;;;;;;;;;;;31.40;38.40;;;;;;5126204;27;20270;-56
2022/07/13 09:23:01;;;;;;;;;;;31.70;36.80;;;;;;5125804;27;19930;-56
2022/07/13 09:25:41;;;;;;;;;;;31.90;35.50;;;;;;5125122;27;20534;-56
2022/07/13 09:28:21;;;;;;;;;;;31.80;35.80;;;;;;5102674;27;19916;-56
2022/07/13 09:31:01;;;;;;;;;;;31.60;37.20;;;;;;5105333;27;19961;-56
2022/07/13 09:33:43;;;;;;;;;;;31.30;36.90;;;;;;5105071;27;20366;-56
2022/07/13 09:36:25;;;;;;;;;;;31.10;35.50;;;;;;5124369;27;19917;-56
2022/07/13 09:39:09;;;;;;;;;;;30.50;37.50;;;;;;5125486;27;20380;-56
2022/07/13 09:41:50;;;;;;;;;;;30.00;38.70;;;;;;5125649;27;19916;-56
2022/07/13 09:47:35;;;;;;;;;;;29.60;38.40;;;;;;5123803;27;19912;-56
2022/07/13 09:50:17;;;;;;;;;;;29.40;39.10;;;;;;5125801;27;19918;-56
2022/07/13 09:52:58;;;;;;;;;;;29.40;38.10;;;;;;5105174;27;19912;-56
2022/07/13 09:55:41;;;;;;;;;;;29.40;38.70;;;;;;5104283;27;19916;-56
2022/07/13 09:58:26;;;;;;;;;;;29.30;38.50;;;;;;5124960;27;19922;-55
2022/07/13 10:01:07;;;;;;;;;;;28.80;38.00;;;;;;5105248;27;19919;-55
2022/07/13 10:03:47;;;;;;;;;;;28.30;39.50;;;;;;5084609;28;19917;-56
2022/07/13 10:06:27;;;;;;;;;;;28.00;38.60;;;;;;5083339;28;20389;-56
2022/07/13 10:09:06;;;;;;;;;;;27.90;39.60;;;;;;5125082;27;19911;-55
2022/07/13 10:11:46;;;;;;;;;;;28.00;40.50;;;;;;5125556;27;19918;-56
2022/07/13 10:14:27;;;;;;;;;;;28.00;38.90;;;;;;5124962;27;19922;-55
2022/07/13 10:17:10;;;;;;;;;;;28.00;37.20;;;;;;5124244;27;20373;-56
2022/07/13 10:19:52;;;;;;;;;;;28.00;36.80;;;;;;5125692;27;20328;-55
2022/07/13 10:22:35;;;;;;;;;;;27.90;36.50;;;;;;5121956;27;19920;-56
2022/07/13 10:25:17;;;;;;;;;;;28.10;39.40;;;;;;5124879;27;19920;-56
2022/07/13 10:28:04;;;;;;;;;;;28.50;36.80;;;;;;5102278;27;19938;-56
2022/07/13 10:30:44;;;;;;;;;;;28.90;36.20;;;;;;5126224;27;19912;-56
2022/07/13 10:33:25;;;;;;;;;;;29.30;34.40;;;;;;5114795;27;19912;-56
2022/07/13 10:36:06;;;;;;;;;;;29.40;34.20;;;;;;5103902;27;20339;-56
2022/07/13 10:39:03;;;;;;;;;;;29.10;34.50;;;;;;5105082;27;19938;-56
2022/07/13 10:41:56;;;;;;;;;;;28.80;35.00;;;;;;5125208;27;19912;-55
2022/07/13 10:44:38;;;;;;;;;;;28.60;35.10;;;;;;5167210;27;19923;-56
2022/07/13 10:47:20;;;;;;;;;;;28.70;37.00;;;;;;5124803;27;19912;-56
2022/07/13 10:50:02;;;;;;;;;;;28.90;37.20;;;;;;5105785;27;19912;-56
2022/07/13 10:52:44;;;;;;;;;;;28.90;34.70;;;;;;5125357;27;19912;-56
2022/07/13 10:55:32;;;;;;;;;;;28.80;34.30;;;;;;5166530;27;19911;-56
2022/07/13 10:58:30;;;;;;;;;;;28.70;35.60;;;;;;5125254;27;19920;-56
2022/07/13 11:01:24;;;;;;;;;;;28.60;34.50;;;;;;5125512;27;19912;-56
2022/07/13 11:04:06;;;;;;;;;;;28.60;35.30;;;;;;5125680;27;19912;-56
2022/07/13 11:07:00;;;;;;;;;;;28.70;36.50;;;;;;5104215;27;19916;-56
2022/07/13 11:09:41;;;;;;;;;;;28.90;34.20;;;;;;5125457;27;19912;-55
2022/07/13 11:12:22;;;;;;;;;;;28.90;35.60;;;;;;5123540;27;19934;-56
2022/07/13 11:15:16;;;;;;;;;;;28.90;35.70;;;;;;5104685;27;19961;-55
2022/07/13 11:18:16;;;;;;;;;;;28.90;35.80;;;;;;5124359;27;20328;-55
2022/07/13 11:20:58;;;;;;;;;;;28.90;36.70;;;;;;5125058;27;20389;-56
2022/07/13 11:26:56;;;;;;;;;;;29.40;33.70;;;;;;5124740;27;19916;-56
2022/07/13 11:29:44;;;;;;;;;;;29.90;34.80;;;;;;5124227;27;20273;-56
2022/07/13 11:32:26;;;;;;;;;;;30.20;32.50;;;;;;5125087;27;20306;-56
2022/07/13 11:35:06;;;;;;;;;;;30.40;32.60;;;;;;5105004;27;19912;-56
2022/07/13 11:37:47;;;;;;;;;;;30.70;30.10;;;;;;5124741;27;19945;-56
2022/07/13 11:40:28;;;;;;;;;;;31.00;31.60;;;;;;5125032;27;19919;-56
2022/07/13 11:43:09;;;;;;;;;;;31.60;30.40;;;;;;5117348;27;20558;-56
2022/07/13 11:45:49;;;;;;;;;;;32.10;28.30;;;;;;5124831;27;20312;-56
2022/07/13 11:48:33;;;;;;;;;;;31.80;29.60;;;;;;5122941;27;19915;-56
2022/07/13 11:51:14;;;;;;;;;;;31.80;31.30;;;;;;5125509;27;19911;-56
2022/07/13 11:53:54;;;;;;;;;;;31.80;30.30;;;;;;5126112;27;20648;-56
2022/07/13 11:56:34;;;;;;;;;;;31.90;29.70;;;;;;5104086;27;20435;-56
2022/07/13 11:59:14;;;;;;;;;;;32.30;32.50;;;;;;5125662;27;19911;-56
2022/07/13 12:01:54;;;;;;;;;;;32.70;29.00;;;;;;5125874;27;19916;-56
2022/07/13 12:04:35;;;;;;;;;;;32.90;28.70;;;;;;5123882;27;19912;-56
2022/07/13 12:07:16;;;;;;;;;;;33.00;28.90;;;;;;5124092;27;19915;-56
2022/07/13 12:09:57;;;;;;;;;;;33.30;27.60;;;;;;5125929;27;19945;-56
2022/07/13 12:12:40;;;;;;;;;;;33.50;28.50;;;;;;5121513;27;19922;-56
2022/07/13 12:15:19;;;;;;;;;;;33.80;28.20;;;;;;5105345;27;19918;-56
2022/07/13 12:18:04;;;;;;;;;;;34.10;27.40;;;;;;5124794;27;19912;-56
2022/07/13 12:20:44;;;;;;;;;;;34.40;27.20;;;;;;5084057;28;19912;-56
2022/07/13 12:23:24;;;;;;;;;;;34.10;27.80;;;;;;5104228;27;19919;-56
2022/07/13 12:26:07;;;;;;;;;;;34.00;26.60;;;;;;5124612;27;20294;-56
2022/07/13 12:28:46;;;;;;;;;;;34.10;26.50;;;;;;5122734;27;19912;-55
2022/07/13 12:31:26;;;;;;;;;;;34.20;26.60;;;;;;5125138;27;19918;-55
2022/07/13 12:34:06;;;;;;;;;;;34.10;27.40;;;;;;5105143;27;20458;-56
2022/07/13 12:36:49;;;;;;;;;;;34.20;28.40;;;;;;5104340;27;19926;-56
2022/07/13 12:39:45;;;;;;;;;;;34.50;26.80;;;;;;5126029;27;19912;-55
2022/07/13 12:42:27;;;;;;;;;;;34.70;25.10;;;;;;5122648;27;19930;-55
2022/07/13 12:45:18;;;;;;;;;;;34.40;26.30;;;;;;5125885;27;19931;-55
2022/07/13 12:47:59;;;;;;;;;;;34.80;26.20;;;;;;5102850;27;19912;-55
2022/07/13 12:50:39;;;;;;;;;;;34.90;26.40;;;;;;5146419;27;19912;-55
2022/07/13 12:53:18;;;;;;;;;;;35.00;26.10;;;;;;5125963;27;20387;-55
2022/07/13 12:55:58;;;;;;;;;;;35.10;26.50;;;;;;5104425;27;19930;-56
2022/07/13 12:58:41;;;;;;;;;;;35.20;26.40;;;;;;5144415;27;19911;-55
2022/07/13 13:01:28;;;;;;;;;;;35.30;26.20;;;;;;5103472;27;19912;-55
2022/07/13 13:04:11;;;;;;;;;;;35.30;25.10;;;;;;5125783;27;19912;-55
2022/07/13 13:06:50;;;;;;;;;;;35.30;23.60;;;;;;5124193;27;19938;-56
2022/07/13 13:09:30;;;;;;;;;;;35.20;24.60;;;;;;5124538;27;19911;-55
2022/07/13 13:12:10;;;;;;;;;;;35.20;23.80;;;;;;5125873;27;19926;-55
2022/07/13 13:14:51;;;;;;;;;;;35.20;23.20;;;;;;5125544;27;19912;-55
2022/07/13 13:17:32;;;;;;;;;;;35.10;23.00;;;;;;5124517;27;20304;-56
2022/07/13 13:20:12;;;;;;;;;;;34.80;23.70;;;;;;5105011;27;19926;-55
2022/07/13 13:22:53;;;;;;;;;;;34.70;25.00;;;;;;5125325;27;19918;-55
2022/07/13 13:25:34;;;;;;;;;;;34.70;25.70;;;;;;5125061;27;19961;-55
2022/07/13 13:28:14;;;;;;;;;;;34.70;26.40;;;;;;5123002;27;19927;-56
2022/07/13 13:30:54;;;;;;;;;;;34.60;24.20;;;;;;5125722;27;19918;-55
2022/07/13 13:33:34;;;;;;;;;;;34.30;25.20;;;;;;5104830;27;19924;-55
2022/07/13 13:36:15;;;;;;;;;;;33.90;24.40;;;;;;5124498;27;19912;-56
2022/07/13 13:38:57;;;;;;;;;;;33.50;25.40;;;;;;5104613;27;19930;-56
2022/07/13 13:41:36;;;;;;;;;;;33.30;25.60;;;;;;5125779;27;19916;-55
2022/07/13 13:44:16;;;;;;;;;;;33.10;25.40;;;;;;5084827;28;19917;-55
2022/07/13 13:46:57;;;;;;;;;;;33.10;25.90;;;;;;5104554;27;20327;-55
2022/07/13 13:49:37;;;;;;;;;;;33.20;27.00;;;;;;5103992;27;20423;-55
2022/07/13 13:52:17;;;;;;;;;;;33.00;25.60;;;;;;5160762;27;19915;-55
2022/07/13 13:54:57;;;;;;;;;;;32.80;26.40;;;;;;5105798;27;19930;-56
2022/07/13 13:57:37;;;;;;;;;;;32.80;25.10;;;;;;5104426;27;20145;-55
2022/07/13 14:00:17;;;;;;;;;;;32.90;24.10;;;;;;5104992;27;20008;-54
2022/07/13 14:02:57;;;;;;;;;;;32.80;24.20;;;;;;5105792;27;19926;-55
2022/07/13 14:05:38;;;;;;;;;;;33.10;23.70;;;;;;5125715;27;19916;-56
2022/07/13 14:08:18;;;;;;;;;;;33.60;23.00;;;;;;5113374;27;19916;-55
2022/07/13 14:10:57;;;;;;;;;;;34.20;22.20;;;;;;5126089;27;19920;-56
2022/07/13 14:13:38;;;;;;;;;;;34.20;23.30;;;;;;5105001;27;20867;-55
2022/07/13 14:16:17;;;;;;;;;;;34.00;24.10;;;;;;5124852;27;19912;-55
2022/07/13 14:18:58;;;;;;;;;;;33.90;24.40;;;;;;5105201;27;19930;-56
2022/07/13 14:21:38;;;;;;;;;;;33.60;24.50;;;;;;5143493;27;19919;-55
2022/07/13 14:24:18;;;;;;;;;;;33.50;24.80;;;;;;5126243;27;20308;-56
2022/07/13 14:26:58;;;;;;;;;;;33.30;24.30;;;;;;5104074;27;19930;-56
2022/07/13 14:29:38;;;;;;;;;;;33.70;25.00;;;;;;5124540;27;19916;-55
2022/07/13 14:32:18;;;;;;;;;;;34.40;25.60;;;;;;5084765;28;19912;-55
2022/07/13 14:34:57;;;;;;;;;;;34.90;24.90;;;;;;5125554;27;19912;-58
2022/07/13 14:37:38;;;;;;;;;;;35.00;24.80;;;;;;5104681;27;20610;-56
2022/07/13 14:40:19;;;;;;;;;;;34.80;23.70;;;;;;5125865;27;19915;-56
2022/07/13 14:42:59;;;;;;;;;;;34.50;24.20;;;;;;5105987;27;19912;-55
2022/07/13 14:45:39;;;;;;;;;;;34.30;23.50;;;;;;5125991;27;19981;-56
2022/07/13 14:48:18;;;;;;;;;;;34.10;24.10;;;;;;5080566;28;20320;-56
2022/07/13 14:50:59;;;;;;;;;;;33.90;23.90;;;;;;5104651;27;19912;-55
2022/07/13 14:53:39;;;;;;;;;;;33.80;24.60;;;;;;5084490;28;20309;-56
2022/07/13 14:56:19;;;;;;;;;;;33.70;23.40;;;;;;5124985;27;20381;-55
2022/07/13 14:58:59;;;;;;;;;;;33.70;23.50;;;;;;5145314;27;19911;-55
2022/07/13 15:01:39;;;;;;;;;;;33.40;22.80;;;;;;5105504;27;19926;-55
2022/07/13 15:04:19;;;;;;;;;;;33.20;24.40;;;;;;5105292;27;19912;-55
2022/07/13 15:06:59;;;;;;;;;;;33.10;24.20;;;;;;5125700;27;19912;-55
2022/07/13 15:09:39;;;;;;;;;;;33.10;22.80;;;;;;5146863;27;19912;-55
2022/07/13 15:12:18;;;;;;;;;;;33.20;24.80;;;;;;5163967;27;20315;-55
2022/07/13 15:14:58;;;;;;;;;;;33.30;25.60;;;;;;5125112;27;20361;-55
2022/07/13 15:17:38;;;;;;;;;;;33.10;25.90;;;;;;5144781;27;19921;-55
2022/07/13 15:20:18;;;;;;;;;;;33.10;24.20;;;;;;5123581;27;19912;-57
2022/07/13 15:22:58;;;;;;;;;;;33.20;23.70;;;;;;5124288;27;19929;-55
2022/07/13 15:25:38;;;;;;;;;;;33.40;25.80;;;;;;5107568;27;19916;-55
2022/07/13 15:28:19;;;;;;;;;;;33.30;25.60;;;;;;5123601;27;19912;-55
2022/07/13 15:30:59;;;;;;;;;;;33.50;25.00;;;;;;5125383;27;19911;-55
2022/07/13 15:33:39;;;;;;;;;;;34.30;24.20;;;;;;5120253;27;19916;-55
2022/07/13 15:36:20;;;;;;;;;;;35.20;23.10;;;;;;5123909;27;19915;-56
2022/07/13 15:39:00;;;;;;;;;;;35.50;22.30;;;;;;5125493;27;19920;-55
2022/07/13 15:41:40;;;;;;;;;;;35.00;23.20;;;;;;5125962;27;19915;-55
2022/07/13 15:44:21;;;;;;;;;;;34.20;25.30;;;;;;5125493;27;20300;-55
2022/07/13 15:47:01;;;;;;;;;;;33.80;24.90;;;;;;5104330;27;19945;-55